createdAt,value
2022-08-26T00:03:56.679Z,9.82
2022-08-26T00:09:02.016Z,9.48
2022-08-26T00:14:08.768Z,9.20
2022-08-26T00:19:13.473Z,10.70
2022-08-26T00:24:21.453Z,10.20
2022-08-26T00:29:27.192Z,9.48
2022-08-26T00:34:32.037Z,8.60
2022-08-26T00:39:36.649Z,8.60
2022-08-26T00:44:42.935Z,8.80
2022-08-26T00:49:48.897Z,8.30
2022-08-26T00:55:01.577Z,8.77
2022-08-26T01:00:14.150Z,8.75
2022-08-26T01:05:20.771Z,7.72
2022-08-26T01:10:31.529Z,8.23
2022-08-26T01:15:42.035Z,9.10
2022-08-26T01:20:58.046Z,8.50
2022-08-26T01:26:19.615Z,7.95
2022-08-26T01:31:29.323Z,9.35
2022-08-26T01:36:36.042Z,9.18
2022-08-26T01:41:44.143Z,7.90
2022-08-26T01:46:51.205Z,7.93
2022-08-26T01:51:58.274Z,9.95
2022-08-26T01:57:05.183Z,9.25
2022-08-26T02:02:10.001Z,8.57
2022-08-26T02:07:14.834Z,8.60
2022-08-26T02:12:27.781Z,8.70
2022-08-26T02:17:40.065Z,8.43
2022-08-26T02:22:46.445Z,8.45
2022-08-26T02:27:53.446Z,8.90
2022-08-26T02:33:02.109Z,8.45
2022-08-26T02:38:11.081Z,9.00
2022-08-26T02:43:17.510Z,9.65
2022-08-26T02:48:23.623Z,9.75
2022-08-26T02:53:32.129Z,10.02
2022-08-26T02:58:41.917Z,9.05
2022-08-26T03:03:46.649Z,8.82
2022-08-26T03:08:56.278Z,9.40
2022-08-26T03:14:03.888Z,8.88
2022-08-26T03:19:10.605Z,9.02
2022-08-26T03:24:15.101Z,8.80
2022-08-26T03:29:37.856Z,8.57
2022-08-26T03:34:43.863Z,9.20
2022-08-26T03:39:48.400Z,9.85
2022-08-26T03:44:54.435Z,14.35
2022-08-26T03:49:59.768Z,9.63
2022-08-26T03:55:05.053Z,8.48
2022-08-26T04:00:18.472Z,9.25
2022-08-26T04:05:24.907Z,8.98
2022-08-26T04:10:29.737Z,8.70
2022-08-26T04:15:35.772Z,8.40
2022-08-26T04:20:41.053Z,9.52
2022-08-26T04:25:46.000Z,9.13
2022-08-26T04:30:52.351Z,8.50
2022-08-26T04:36:02.339Z,8.25
2022-08-26T04:41:14.916Z,10.02
2022-08-26T04:46:25.196Z,8.32
2022-08-26T04:51:29.745Z,7.55
2022-08-26T04:56:36.518Z,7.78
2022-08-26T05:01:46.230Z,7.28
2022-08-26T05:06:52.164Z,7.60
2022-08-26T05:11:57.434Z,7.50
2022-08-26T05:17:03.866Z,7.72
2022-08-26T05:22:13.079Z,6.47
2022-08-26T05:27:18.070Z,6.60
2022-08-26T05:32:24.577Z,5.82
2022-08-26T05:37:29.950Z,7.35
2022-08-26T05:42:36.627Z,6.85
2022-08-26T05:47:43.171Z,6.15
2022-08-26T05:52:47.575Z,7.03
2022-08-26T05:57:52.142Z,7.05
2022-08-26T06:02:58.963Z,6.78
2022-08-26T06:08:14.602Z,6.80
2022-08-26T06:13:19.982Z,7.28
2022-08-26T06:18:32.755Z,7.03
2022-08-26T06:23:55.474Z,7.45
2022-08-26T06:29:01.713Z,7.50
2022-08-26T06:34:10.967Z,5.93
2022-08-26T06:39:18.955Z,5.45
2022-08-26T06:49:31.427Z,7.25
2022-08-26T06:54:37.234Z,5.57
2022-08-26T06:59:44.392Z,5.60
2022-08-26T07:04:51.196Z,5.63
2022-08-26T07:09:56.265Z,5.15
2022-08-26T07:15:02.269Z,4.78
2022-08-26T07:20:12.465Z,4.53
2022-08-26T07:25:17.096Z,4.72
2022-08-26T07:30:24.798Z,4.70
2022-08-26T07:35:30.591Z,4.68
2022-08-26T07:40:36.120Z,4.32
2022-08-26T07:45:52.792Z,4.70
2022-08-26T07:50:59.625Z,4.07
2022-08-26T07:56:05.094Z,4.47
2022-08-26T08:01:09.877Z,4.53
2022-08-26T08:06:16.608Z,4.55
2022-08-26T08:11:22.376Z,4.15
2022-08-26T08:16:27.334Z,3.88
2022-08-26T08:21:34.299Z,4.03
2022-08-26T08:26:39.065Z,4.38
2022-08-26T08:31:56.524Z,4.30
2022-08-26T08:37:10.620Z,4.80
2022-08-26T08:42:33.593Z,3.60
2022-08-26T08:47:43.754Z,4.50
2022-08-26T08:53:00.361Z,4.00
2022-08-26T08:58:10.602Z,4.88
2022-08-26T09:03:33.965Z,4.15
2022-08-26T09:08:41.586Z,3.67
2022-08-26T09:13:56.131Z,3.92
2022-08-26T09:19:19.371Z,4.97
2022-08-26T09:24:28.565Z,4.20
2022-08-26T09:29:44.385Z,3.58
2022-08-26T09:34:58.412Z,5.03
2022-08-26T09:40:27.041Z,4.43
2022-08-26T09:45:39.982Z,3.70
2022-08-26T09:50:56.281Z,3.72
2022-08-26T09:56:18.113Z,3.70
2022-08-26T10:01:32.917Z,4.22
2022-08-26T10:06:42.210Z,4.00
2022-08-26T10:11:53.913Z,3.15
2022-08-26T10:17:05.522Z,3.63
2022-08-26T10:22:16.861Z,4.00
2022-08-26T10:27:33.227Z,3.10
2022-08-26T10:32:43.484Z,4.53
2022-08-26T10:37:54.113Z,3.50
2022-08-26T10:43:11.442Z,3.20
2022-08-26T10:48:22.960Z,2.88
2022-08-26T10:53:39.738Z,2.90
2022-08-26T10:59:01.392Z,2.80
2022-08-26T11:04:14.969Z,5.40
2022-08-26T11:09:47.227Z,3.10
2022-08-26T11:14:58.898Z,2.88
2022-08-26T11:20:09.265Z,2.47
2022-08-26T11:25:19.822Z,2.38
2022-08-26T11:30:48.229Z,3.50
2022-08-26T11:36:12.057Z,2.75
2022-08-26T11:41:24.857Z,2.53
2022-08-26T11:46:37.996Z,2.30
2022-08-26T11:51:48.274Z,2.25
2022-08-26T11:56:54.398Z,2.60
2022-08-26T12:02:02.585Z,2.40
2022-08-26T12:07:09.116Z,2.22
2022-08-26T12:12:16.540Z,1.92
2022-08-26T12:17:29.826Z,2.55
2022-08-26T12:22:39.059Z,2.28
2022-08-26T12:27:53.599Z,2.20
2022-08-26T12:33:22.760Z,2.45
2022-08-26T12:38:29.642Z,2.63
2022-08-26T12:43:45.813Z,1.95
2022-08-26T12:48:53.304Z,2.10
2022-08-26T12:53:59.020Z,2.30
2022-08-26T12:59:12.257Z,2.70
2022-08-26T13:04:40.527Z,5.18
2022-08-26T13:09:45.404Z,2.42
2022-08-26T13:14:51.096Z,2.17
2022-08-26T13:20:03.513Z,2.20
2022-08-26T13:25:09.537Z,1.90
2022-08-26T13:30:15.852Z,2.20
2022-08-26T13:35:22.045Z,2.88
2022-08-26T13:40:28.466Z,2.60
2022-08-26T13:45:36.534Z,3.35
2022-08-26T13:50:42.328Z,2.03
2022-08-26T13:55:48.228Z,2.20
2022-08-26T14:00:52.842Z,3.05
2022-08-26T14:05:59.793Z,2.92
2022-08-26T14:11:04.652Z,3.00
2022-08-26T14:16:13.670Z,3.08
2022-08-26T14:21:20.975Z,2.30
2022-08-26T14:26:28.799Z,3.65
2022-08-26T14:31:38.075Z,3.00
2022-08-26T14:36:44.849Z,2.75
2022-08-26T14:41:53.893Z,2.83
2022-08-26T14:47:02.745Z,2.90
2022-08-26T14:52:08.942Z,3.00
2022-08-26T14:57:17.281Z,3.00
2022-08-26T15:02:32.329Z,2.92
2022-08-26T15:07:40.724Z,5.60
2022-08-26T15:12:47.134Z,4.40
2022-08-26T15:17:51.784Z,2.92
2022-08-26T15:22:59.004Z,2.75
2022-08-26T15:28:10.789Z,3.38
2022-08-26T15:33:15.889Z,2.85
2022-08-26T15:38:21.700Z,2.70
2022-08-26T15:43:29.039Z,2.55
2022-08-26T15:48:33.953Z,2.63
2022-08-26T15:53:39.750Z,3.08
2022-08-26T15:58:44.767Z,2.63
2022-08-26T16:09:28.177Z,2.80
2022-08-26T16:14:42.347Z,2.85
2022-08-26T16:19:47.253Z,3.10
2022-08-26T16:24:58.175Z,3.67
2022-08-26T16:30:02.993Z,3.40
2022-08-26T16:35:09.883Z,3.42
2022-08-26T16:40:15.985Z,3.25
2022-08-26T16:45:21.164Z,3.38
2022-08-26T16:50:26.095Z,3.33
2022-08-26T16:55:32.516Z,3.60
2022-08-26T17:00:38.242Z,3.22
2022-08-26T17:05:42.602Z,3.38
2022-08-26T17:10:48.875Z,3.45
2022-08-26T17:16:00.341Z,3.58
2022-08-26T17:21:11.886Z,3.30
2022-08-26T17:26:18.204Z,4.05
2022-08-26T17:31:24.894Z,4.07
2022-08-26T17:36:29.229Z,4.72
2022-08-26T17:41:35.133Z,4.00
2022-08-26T17:46:39.812Z,4.15
2022-08-26T17:51:44.377Z,4.65
2022-08-26T17:56:50.523Z,4.40
2022-08-26T18:01:55.696Z,4.50
2022-08-26T18:07:00.620Z,4.68
2022-08-26T18:12:07.796Z,5.53
2022-08-26T18:17:12.615Z,4.68
2022-08-26T18:22:23.795Z,5.38
2022-08-26T18:27:29.895Z,5.68
2022-08-26T18:32:34.914Z,5.07
2022-08-26T18:37:39.493Z,5.00
2022-08-26T18:42:45.951Z,4.88
2022-08-26T18:47:54.119Z,4.80
2022-08-26T18:52:58.822Z,4.63
2022-08-26T18:58:05.040Z,5.00
2022-08-26T19:03:15.581Z,4.45
2022-08-26T19:08:23.872Z,4.80
2022-08-26T19:13:30.637Z,5.03
2022-08-26T19:18:35.079Z,4.55
2022-08-26T19:23:41.704Z,5.47
2022-08-26T19:28:49.736Z,5.50
2022-08-26T19:33:54.636Z,4.60
2022-08-26T19:39:00.608Z,5.28
2022-08-26T19:44:10.784Z,4.82
2022-08-26T19:49:15.896Z,5.15
2022-08-26T19:54:22.857Z,5.55
2022-08-26T19:59:29.412Z,4.45
2022-08-26T20:04:34.329Z,4.88
2022-08-26T20:09:40.173Z,5.25
2022-08-26T20:14:46.380Z,5.32
2022-08-26T20:20:28.459Z,5.53
2022-08-26T20:25:33.929Z,5.63
2022-08-26T20:30:40.421Z,4.90
2022-08-26T20:35:45.069Z,5.47
2022-08-26T20:40:51.318Z,5.55
2022-08-26T20:46:03.215Z,6.55
2022-08-26T20:51:12.963Z,6.35
2022-08-26T20:56:22.159Z,7.35
2022-08-26T21:01:34.753Z,7.10
2022-08-26T21:06:40.165Z,8.80
2022-08-26T21:11:47.389Z,15.95
2022-08-26T21:16:53.859Z,14.80
2022-08-26T21:22:00.012Z,12.73
2022-08-26T21:27:04.570Z,9.65
2022-08-26T21:32:10.611Z,9.02
2022-08-26T21:37:19.978Z,8.00
2022-08-26T21:42:27.007Z,8.13
2022-08-26T21:47:33.485Z,6.68
2022-08-26T21:52:39.623Z,6.88
2022-08-26T21:57:44.533Z,7.70
2022-08-26T22:02:50.876Z,6.93
2022-08-26T22:07:55.556Z,6.03
2022-08-26T22:13:00.229Z,7.60
2022-08-26T22:18:09.914Z,5.97
2022-08-26T22:23:14.986Z,5.82
2022-08-26T22:28:20.334Z,7.32
2022-08-26T22:33:27.085Z,8.38
2022-08-26T22:38:32.442Z,8.10
2022-08-26T22:43:38.872Z,6.97
2022-08-26T22:48:44.516Z,7.35
2022-08-26T22:53:49.510Z,6.32
2022-08-26T22:58:53.853Z,7.82
2022-08-26T23:03:59.613Z,6.10
2022-08-26T23:09:04.959Z,7.32
2022-08-26T23:14:09.839Z,7.05
2022-08-26T23:19:18.213Z,6.57
2022-08-26T23:24:23.051Z,6.45
2022-08-26T23:29:27.741Z,6.78
2022-08-26T23:34:51.015Z,7.78
2022-08-26T23:39:56.573Z,6.63
2022-08-26T23:45:01.335Z,7.13
2022-08-26T23:50:09.414Z,6.95
2022-08-26T23:55:15.179Z,7.00
